sensor_id;sensor_type;location;lat;lon;timestamp;P1;durP1;ratioP1;P2;durP2;ratioP2
74229;SDS011;62589;12.568;99.958;2023-11-21T00:02:24;16.08;;;9.75;;
74229;SDS011;62589;12.568;99.958;2023-11-21T00:04:52;19.23;;;10.10;;
74229;SDS011;62589;12.568;99.958;2023-11-21T00:07:19;15.40;;;9.35;;
74229;SDS011;62589;12.568;99.958;2023-11-21T00:09:46;17.35;;;9.45;;
74229;SDS011;62589;12.568;99.958;2023-11-21T00:12:13;13.13;;;9.57;;
74229;SDS011;62589;12.568;99.958;2023-11-21T00:14:40;11.50;;;8.90;;
74229;SDS011;62589;12.568;99.958;2023-11-21T00:17:06;11.95;;;8.90;;
74229;SDS011;62589;12.568;99.958;2023-11-21T00:19:32;16.13;;;9.63;;
74229;SDS011;62589;12.568;99.958;2023-11-21T00:22:00;17.65;;;9.48;;
74229;SDS011;62589;12.568;99.958;2023-11-21T00:24:26;12.27;;;8.77;;
74229;SDS011;62589;12.568;99.958;2023-11-21T00:26:53;15.57;;;9.00;;
74229;SDS011;62589;12.568;99.958;2023-11-21T00:29:19;13.95;;;8.98;;
74229;SDS011;62589;12.568;99.958;2023-11-21T00:31:46;12.85;;;8.55;;
74229;SDS011;62589;12.568;99.958;2023-11-21T00:34:12;16.08;;;9.70;;
74229;SDS011;62589;12.568;99.958;2023-11-21T00:36:39;15.90;;;9.73;;
74229;SDS011;62589;12.568;99.958;2023-11-21T00:39:06;13.02;;;9.68;;
74229;SDS011;62589;12.568;99.958;2023-11-21T00:41:33;17.60;;;10.20;;
74229;SDS011;62589;12.568;99.958;2023-11-21T00:44:01;15.35;;;10.68;;
74229;SDS011;62589;12.568;99.958;2023-11-21T00:46:28;15.75;;;10.57;;
74229;SDS011;62589;12.568;99.958;2023-11-21T00:48:55;19.42;;;9.85;;
74229;SDS011;62589;12.568;99.958;2023-11-21T00:51:21;17.75;;;10.57;;
74229;SDS011;62589;12.568;99.958;2023-11-21T00:53:48;14.43;;;10.05;;
74229;SDS011;62589;12.568;99.958;2023-11-21T00:56:14;17.13;;;10.65;;
74229;SDS011;62589;12.568;99.958;2023-11-21T00:58:41;19.63;;;11.38;;
74229;SDS011;62589;12.568;99.958;2023-11-21T01:01:09;17.67;;;11.07;;
74229;SDS011;62589;12.568;99.958;2023-11-21T01:03:35;17.48;;;10.45;;
74229;SDS011;62589;12.568;99.958;2023-11-21T01:06:02;18.13;;;10.63;;
74229;SDS011;62589;12.568;99.958;2023-11-21T01:08:30;14.02;;;9.38;;
74229;SDS011;62589;12.568;99.958;2023-11-21T01:10:56;17.08;;;11.05;;
74229;SDS011;62589;12.568;99.958;2023-11-21T01:13:23;16.08;;;10.25;;
74229;SDS011;62589;12.568;99.958;2023-11-21T01:15:55;14.25;;;9.60;;
74229;SDS011;62589;12.568;99.958;2023-11-21T01:18:21;16.10;;;9.40;;
74229;SDS011;62589;12.568;99.958;2023-11-21T01:20:51;13.65;;;8.93;;
74229;SDS011;62589;12.568;99.958;2023-11-21T01:23:19;14.25;;;9.02;;
74229;SDS011;62589;12.568;99.958;2023-11-21T01:25:45;14.13;;;9.13;;
74229;SDS011;62589;12.568;99.958;2023-11-21T01:28:12;16.48;;;8.65;;
74229;SDS011;62589;12.568;99.958;2023-11-21T01:30:38;13.75;;;8.77;;
74229;SDS011;62589;12.568;99.958;2023-11-21T01:33:08;13.07;;;8.63;;
74229;SDS011;62589;12.568;99.958;2023-11-21T01:35:35;18.73;;;9.70;;
74229;SDS011;62589;12.568;99.958;2023-11-21T01:38:01;18.35;;;9.07;;
74229;SDS011;62589;12.568;99.958;2023-11-21T01:40:29;15.82;;;8.55;;
74229;SDS011;62589;12.568;99.958;2023-11-21T01:42:56;10.32;;;7.78;;
74229;SDS011;62589;12.568;99.958;2023-11-21T01:45:23;16.85;;;8.85;;
74229;SDS011;62589;12.568;99.958;2023-11-21T01:47:50;13.98;;;8.55;;
74229;SDS011;62589;12.568;99.958;2023-11-21T01:50:17;15.40;;;9.05;;
74229;SDS011;62589;12.568;99.958;2023-11-21T01:52:45;12.98;;;7.82;;
74229;SDS011;62589;12.568;99.958;2023-11-21T01:55:12;14.65;;;7.65;;
74229;SDS011;62589;12.568;99.958;2023-11-21T01:57:45;15.18;;;8.13;;
74229;SDS011;62589;12.568;99.958;2023-11-21T02:00:13;19.50;;;9.50;;
74229;SDS011;62589;12.568;99.958;2023-11-21T02:02:48;11.68;;;7.80;;
74229;SDS011;62589;12.568;99.958;2023-11-21T02:05:15;15.07;;;9.05;;
74229;SDS011;62589;12.568;99.958;2023-11-21T02:07:43;14.95;;;8.77;;
74229;SDS011;62589;12.568;99.958;2023-11-21T02:10:13;13.65;;;9.20;;
74229;SDS011;62589;12.568;99.958;2023-11-21T02:12:41;15.98;;;8.68;;
74229;SDS011;62589;12.568;99.958;2023-11-21T02:15:08;17.20;;;8.73;;
74229;SDS011;62589;12.568;99.958;2023-11-21T02:17:52;13.45;;;8.25;;
74229;SDS011;62589;12.568;99.958;2023-11-21T02:20:19;14.48;;;8.80;;
74229;SDS011;62589;12.568;99.958;2023-11-21T02:22:54;14.07;;;8.85;;
74229;SDS011;62589;12.568;99.958;2023-11-21T02:25:29;14.35;;;9.02;;
74229;SDS011;62589;12.568;99.958;2023-11-21T02:27:57;18.20;;;8.90;;
74229;SDS011;62589;12.568;99.958;2023-11-21T02:30:26;16.55;;;8.77;;
74229;SDS011;62589;12.568;99.958;2023-11-21T02:35:31;12.68;;;8.27;;
74229;SDS011;62589;12.568;99.958;2023-11-21T02:37:57;12.88;;;8.20;;
74229;SDS011;62589;12.568;99.958;2023-11-21T02:40:24;14.82;;;8.60;;
74229;SDS011;62589;12.568;99.958;2023-11-21T02:42:51;14.25;;;8.05;;
74229;SDS011;62589;12.568;99.958;2023-11-21T02:45:19;17.00;;;8.35;;
74229;SDS011;62589;12.568;99.958;2023-11-21T02:47:46;12.77;;;7.72;;
74229;SDS011;62589;12.568;99.958;2023-11-21T02:50:14;14.30;;;7.80;;
74229;SDS011;62589;12.568;99.958;2023-11-21T02:52:41;11.95;;;7.47;;
74229;SDS011;62589;12.568;99.958;2023-11-21T02:55:08;14.80;;;8.18;;
74229;SDS011;62589;12.568;99.958;2023-11-21T02:57:34;14.88;;;8.88;;
74229;SDS011;62589;12.568;99.958;2023-11-21T03:00:01;16.88;;;8.88;;
74229;SDS011;62589;12.568;99.958;2023-11-21T03:02:28;11.07;;;8.45;;
74229;SDS011;62589;12.568;99.958;2023-11-21T03:04:54;17.48;;;8.82;;
74229;SDS011;62589;12.568;99.958;2023-11-21T03:07:21;14.60;;;9.00;;
74229;SDS011;62589;12.568;99.958;2023-11-21T03:09:47;14.25;;;8.77;;
74229;SDS011;62589;12.568;99.958;2023-11-21T03:12:14;15.80;;;8.85;;
74229;SDS011;62589;12.568;99.958;2023-11-21T03:14:41;13.07;;;8.55;;
74229;SDS011;62589;12.568;99.958;2023-11-21T03:17:07;16.50;;;8.73;;
74229;SDS011;62589;12.568;99.958;2023-11-21T03:19:34;21.08;;;8.85;;
74229;SDS011;62589;12.568;99.958;2023-11-21T03:22:00;15.43;;;9.02;;
74229;SDS011;62589;12.568;99.958;2023-11-21T03:24:27;15.55;;;8.00;;
74229;SDS011;62589;12.568;99.958;2023-11-21T03:26:53;18.15;;;9.25;;
74229;SDS011;62589;12.568;99.958;2023-11-21T03:29:20;17.08;;;9.00;;
74229;SDS011;62589;12.568;99.958;2023-11-21T03:31:46;20.63;;;9.70;;
74229;SDS011;62589;12.568;99.958;2023-11-21T03:34:19;14.25;;;8.95;;
74229;SDS011;62589;12.568;99.958;2023-11-21T03:36:51;18.77;;;9.07;;
74229;SDS011;62589;12.568;99.958;2023-11-21T03:39:21;17.45;;;9.70;;
74229;SDS011;62589;12.568;99.958;2023-11-21T03:41:48;16.02;;;9.35;;
74229;SDS011;62589;12.568;99.958;2023-11-21T03:44:15;16.73;;;9.65;;
74229;SDS011;62589;12.568;99.958;2023-11-21T03:46:41;12.65;;;8.90;;
74229;SDS011;62589;12.568;99.958;2023-11-21T03:49:07;17.00;;;9.30;;
74229;SDS011;62589;12.568;99.958;2023-11-21T03:51:34;17.77;;;9.30;;
74229;SDS011;62589;12.568;99.958;2023-11-21T03:54:00;14.60;;;10.38;;
74229;SDS011;62589;12.568;99.958;2023-11-21T03:56:27;78.00;;;70.15;;
74229;SDS011;62589;12.568;99.958;2023-11-21T03:58:53;22.45;;;14.13;;
74229;SDS011;62589;12.568;99.958;2023-11-21T04:01:23;15.18;;;10.02;;
74229;SDS011;62589;12.568;99.958;2023-11-21T04:03:50;16.02;;;9.85;;
74229;SDS011;62589;12.568;99.958;2023-11-21T04:06:17;13.63;;;9.70;;
74229;SDS011;62589;12.568;99.958;2023-11-21T04:08:44;15.02;;;9.30;;
74229;SDS011;62589;12.568;99.958;2023-11-21T04:11:11;14.55;;;9.65;;
74229;SDS011;62589;12.568;99.958;2023-11-21T04:13:38;24.75;;;10.35;;
74229;SDS011;62589;12.568;99.958;2023-11-21T04:16:05;15.50;;;10.23;;
74229;SDS011;62589;12.568;99.958;2023-11-21T04:18:34;18.08;;;9.50;;
74229;SDS011;62589;12.568;99.958;2023-11-21T04:21:02;18.33;;;9.40;;
74229;SDS011;62589;12.568;99.958;2023-11-21T04:23:29;14.32;;;9.90;;
74229;SDS011;62589;12.568;99.958;2023-11-21T04:25:57;13.50;;;9.18;;
74229;SDS011;62589;12.568;99.958;2023-11-21T04:28:24;12.15;;;9.68;;
74229;SDS011;62589;12.568;99.958;2023-11-21T04:30:51;12.75;;;9.38;;
74229;SDS011;62589;12.568;99.958;2023-11-21T04:33:17;15.68;;;9.77;;
74229;SDS011;62589;12.568;99.958;2023-11-21T04:35:44;17.95;;;10.38;;
74229;SDS011;62589;12.568;99.958;2023-11-21T04:38:10;14.50;;;9.05;;
74229;SDS011;62589;12.568;99.958;2023-11-21T04:40:37;16.40;;;9.40;;
74229;SDS011;62589;12.568;99.958;2023-11-21T04:43:04;13.30;;;9.10;;
74229;SDS011;62589;12.568;99.958;2023-11-21T04:45:30;12.50;;;8.30;;
74229;SDS011;62589;12.568;99.958;2023-11-21T04:47:57;15.10;;;9.38;;
74229;SDS011;62589;12.568;99.958;2023-11-21T04:50:24;15.35;;;8.48;;
74229;SDS011;62589;12.568;99.958;2023-11-21T04:52:52;12.65;;;8.52;;
74229;SDS011;62589;12.568;99.958;2023-11-21T04:55:19;12.48;;;8.23;;
74229;SDS011;62589;12.568;99.958;2023-11-21T04:57:45;12.45;;;8.40;;
74229;SDS011;62589;12.568;99.958;2023-11-21T05:00:12;12.30;;;8.63;;
74229;SDS011;62589;12.568;99.958;2023-11-21T05:02:42;17.00;;;8.88;;
74229;SDS011;62589;12.568;99.958;2023-11-21T05:05:09;13.15;;;8.25;;
74229;SDS011;62589;12.568;99.958;2023-11-21T05:07:36;14.43;;;8.95;;
74229;SDS011;62589;12.568;99.958;2023-11-21T05:10:04;13.10;;;8.20;;
74229;SDS011;62589;12.568;99.958;2023-11-21T05:12:34;12.75;;;8.00;;
74229;SDS011;62589;12.568;99.958;2023-11-21T05:15:04;17.55;;;8.90;;
74229;SDS011;62589;12.568;99.958;2023-11-21T05:17:37;14.95;;;8.55;;
74229;SDS011;62589;12.568;99.958;2023-11-21T05:20:07;11.98;;;7.78;;
74229;SDS011;62589;12.568;99.958;2023-11-21T05:22:35;13.57;;;8.43;;
74229;SDS011;62589;12.568;99.958;2023-11-21T05:25:02;15.65;;;8.32;;
74229;SDS011;62589;12.568;99.958;2023-11-21T05:27:29;16.88;;;9.93;;
74229;SDS011;62589;12.568;99.958;2023-11-21T05:29:59;15.63;;;8.45;;
74229;SDS011;62589;12.568;99.958;2023-11-21T05:32:34;12.93;;;8.70;;
74229;SDS011;62589;12.568;99.958;2023-11-21T05:35:01;12.90;;;8.93;;
74229;SDS011;62589;12.568;99.958;2023-11-21T05:37:27;19.70;;;9.13;;
74229;SDS011;62589;12.568;99.958;2023-11-21T05:39:55;12.70;;;8.52;;
74229;SDS011;62589;12.568;99.958;2023-11-21T05:42:22;12.05;;;8.25;;
74229;SDS011;62589;12.568;99.958;2023-11-21T05:44:49;13.38;;;8.25;;
74229;SDS011;62589;12.568;99.958;2023-11-21T05:47:15;15.40;;;8.43;;
74229;SDS011;62589;12.568;99.958;2023-11-21T05:49:42;15.07;;;8.60;;
74229;SDS011;62589;12.568;99.958;2023-11-21T05:52:10;15.68;;;8.25;;
74229;SDS011;62589;12.568;99.958;2023-11-21T05:54:37;14.65;;;8.30;;
74229;SDS011;62589;12.568;99.958;2023-11-21T05:57:03;16.90;;;8.88;;
74229;SDS011;62589;12.568;99.958;2023-11-21T05:59:30;16.92;;;9.23;;
74229;SDS011;62589;12.568;99.958;2023-11-21T06:01:56;14.88;;;8.60;;
74229;SDS011;62589;12.568;99.958;2023-11-21T06:04:24;15.70;;;8.45;;
74229;SDS011;62589;12.568;99.958;2023-11-21T06:06:51;17.08;;;9.18;;
74229;SDS011;62589;12.568;99.958;2023-11-21T06:09:19;16.00;;;9.30;;
74229;SDS011;62589;12.568;99.958;2023-11-21T06:11:46;12.90;;;8.48;;
74229;SDS011;62589;12.568;99.958;2023-11-21T06:14:12;15.82;;;8.55;;
74229;SDS011;62589;12.568;99.958;2023-11-21T06:16:40;13.90;;;8.23;;
74229;SDS011;62589;12.568;99.958;2023-11-21T06:19:06;13.65;;;8.73;;
74229;SDS011;62589;12.568;99.958;2023-11-21T06:21:33;13.23;;;8.23;;
74229;SDS011;62589;12.568;99.958;2023-11-21T06:24:00;11.20;;;7.55;;
74229;SDS011;62589;12.568;99.958;2023-11-21T06:26:27;12.25;;;8.07;;
74229;SDS011;62589;12.568;99.958;2023-11-21T06:28:53;12.35;;;7.95;;
74229;SDS011;62589;12.568;99.958;2023-11-21T06:31:20;12.05;;;8.25;;
74229;SDS011;62589;12.568;99.958;2023-11-21T06:33:47;19.13;;;9.05;;
74229;SDS011;62589;12.568;99.958;2023-11-21T06:36:13;13.50;;;8.32;;
74229;SDS011;62589;12.568;99.958;2023-11-21T06:38:40;15.55;;;7.68;;
74229;SDS011;62589;12.568;99.958;2023-11-21T06:41:06;15.45;;;7.97;;
74229;SDS011;62589;12.568;99.958;2023-11-21T06:43:33;16.58;;;7.57;;
74229;SDS011;62589;12.568;99.958;2023-11-21T06:46:00;13.32;;;7.72;;
74229;SDS011;62589;12.568;99.958;2023-11-21T06:48:26;12.25;;;7.38;;
74229;SDS011;62589;12.568;99.958;2023-11-21T06:50:53;10.18;;;7.18;;
74229;SDS011;62589;12.568;99.958;2023-11-21T06:53:19;12.02;;;7.38;;
74229;SDS011;62589;12.568;99.958;2023-11-21T06:55:46;10.23;;;6.93;;
74229;SDS011;62589;12.568;99.958;2023-11-21T06:58:12;14.40;;;6.53;;
74229;SDS011;62589;12.568;99.958;2023-11-21T07:00:40;10.65;;;6.45;;
74229;SDS011;62589;12.568;99.958;2023-11-21T07:03:11;11.82;;;6.43;;
74229;SDS011;62589;12.568;99.958;2023-11-21T07:05:38;11.55;;;6.15;;
74229;SDS011;62589;12.568;99.958;2023-11-21T07:08:04;13.55;;;6.90;;
74229;SDS011;62589;12.568;99.958;2023-11-21T07:10:32;11.73;;;6.65;;
74229;SDS011;62589;12.568;99.958;2023-11-21T07:13:00;11.07;;;6.15;;
74229;SDS011;62589;12.568;99.958;2023-11-21T07:15:27;10.52;;;6.60;;
74229;SDS011;62589;12.568;99.958;2023-11-21T07:17:53;11.95;;;7.47;;
74229;SDS011;62589;12.568;99.958;2023-11-21T07:20:20;11.48;;;6.72;;
74229;SDS011;62589;12.568;99.958;2023-11-21T07:22:46;12.82;;;6.25;;
74229;SDS011;62589;12.568;99.958;2023-11-21T07:25:13;11.85;;;6.15;;
74229;SDS011;62589;12.568;99.958;2023-11-21T07:27:39;9.63;;;6.22;;
74229;SDS011;62589;12.568;99.958;2023-11-21T07:30:06;10.70;;;5.93;;
74229;SDS011;62589;12.568;99.958;2023-11-21T07:32:35;12.43;;;6.15;;
74229;SDS011;62589;12.568;99.958;2023-11-21T07:35:05;7.18;;;5.78;;
74229;SDS011;62589;12.568;99.958;2023-11-21T07:37:33;10.38;;;6.32;;
74229;SDS011;62589;12.568;99.958;2023-11-21T07:39:59;12.15;;;5.18;;
74229;SDS011;62589;12.568;99.958;2023-11-21T07:42:26;9.75;;;5.20;;
74229;SDS011;62589;12.568;99.958;2023-11-21T07:44:52;12.90;;;4.60;;
74229;SDS011;62589;12.568;99.958;2023-11-21T07:47:21;8.90;;;5.28;;
74229;SDS011;62589;12.568;99.958;2023-11-21T07:49:49;7.20;;;4.63;;
74229;SDS011;62589;12.568;99.958;2023-11-21T07:52:15;12.27;;;5.72;;
74229;SDS011;62589;12.568;99.958;2023-11-21T07:54:42;8.43;;;4.45;;
74229;SDS011;62589;12.568;99.958;2023-11-21T07:57:08;9.65;;;4.35;;
74229;SDS011;62589;12.568;99.958;2023-11-21T07:59:39;8.85;;;4.00;;
74229;SDS011;62589;12.568;99.958;2023-11-21T08:02:06;12.75;;;4.82;;
74229;SDS011;62589;12.568;99.958;2023-11-21T08:04:33;11.45;;;4.57;;
74229;SDS011;62589;12.568;99.958;2023-11-21T08:07:01;13.27;;;4.10;;
74229;SDS011;62589;12.568;99.958;2023-11-21T08:09:29;7.85;;;4.68;;
74229;SDS011;62589;12.568;99.958;2023-11-21T08:11:55;11.27;;;4.45;;
74229;SDS011;62589;12.568;99.958;2023-11-21T08:14:22;7.30;;;4.53;;
74229;SDS011;62589;12.568;99.958;2023-11-21T08:16:50;10.75;;;5.03;;
74229;SDS011;62589;12.568;99.958;2023-11-21T08:19:17;11.63;;;5.28;;
74229;SDS011;62589;12.568;99.958;2023-11-21T08:21:44;7.40;;;4.72;;
74229;SDS011;62589;12.568;99.958;2023-11-21T08:24:11;8.10;;;4.40;;
74229;SDS011;62589;12.568;99.958;2023-11-21T08:26:37;8.90;;;4.55;;
74229;SDS011;62589;12.568;99.958;2023-11-21T08:29:03;10.52;;;5.18;;
74229;SDS011;62589;12.568;99.958;2023-11-21T08:31:32;12.90;;;4.60;;
74229;SDS011;62589;12.568;99.958;2023-11-21T08:33:59;7.93;;;4.97;;
74229;SDS011;62589;12.568;99.958;2023-11-21T08:36:28;12.40;;;4.90;;
74229;SDS011;62589;12.568;99.958;2023-11-21T08:38:56;6.70;;;5.07;;
74229;SDS011;62589;12.568;99.958;2023-11-21T08:41:23;10.80;;;5.38;;
74229;SDS011;62589;12.568;99.958;2023-11-21T08:43:50;8.27;;;4.80;;
74229;SDS011;62589;12.568;99.958;2023-11-21T08:46:19;7.43;;;4.15;;
74229;SDS011;62589;12.568;99.958;2023-11-21T08:48:46;7.93;;;4.50;;
74229;SDS011;62589;12.568;99.958;2023-11-21T08:51:12;8.38;;;4.97;;
74229;SDS011;62589;12.568;99.958;2023-11-21T08:53:40;8.75;;;4.32;;
74229;SDS011;62589;12.568;99.958;2023-11-21T08:56:06;7.90;;;4.57;;
74229;SDS011;62589;12.568;99.958;2023-11-21T08:58:34;9.00;;;4.47;;
74229;SDS011;62589;12.568;99.958;2023-11-21T09:01:02;7.38;;;4.28;;
74229;SDS011;62589;12.568;99.958;2023-11-21T09:03:30;9.68;;;3.92;;
74229;SDS011;62589;12.568;99.958;2023-11-21T09:05:59;4.85;;;3.70;;
74229;SDS011;62589;12.568;99.958;2023-11-21T09:08:25;7.68;;;3.60;;
74229;SDS011;62589;12.568;99.958;2023-11-21T09:10:54;7.13;;;4.25;;
74229;SDS011;62589;12.568;99.958;2023-11-21T09:13:21;7.18;;;4.07;;
74229;SDS011;62589;12.568;99.958;2023-11-21T09:15:48;7.38;;;4.15;;
74229;SDS011;62589;12.568;99.958;2023-11-21T09:18:15;9.95;;;3.53;;
74229;SDS011;62589;12.568;99.958;2023-11-21T09:20:42;10.98;;;4.25;;
74229;SDS011;62589;12.568;99.958;2023-11-21T09:23:09;7.93;;;3.90;;
74229;SDS011;62589;12.568;99.958;2023-11-21T09:25:36;6.15;;;3.65;;
74229;SDS011;62589;12.568;99.958;2023-11-21T09:28:04;7.65;;;3.97;;
74229;SDS011;62589;12.568;99.958;2023-11-21T09:30:35;9.00;;;3.80;;
74229;SDS011;62589;12.568;99.958;2023-11-21T09:33:01;9.32;;;3.67;;
74229;SDS011;62589;12.568;99.958;2023-11-21T09:35:28;7.18;;;3.50;;
74229;SDS011;62589;12.568;99.958;2023-11-21T09:37:54;4.55;;;3.40;;
74229;SDS011;62589;12.568;99.958;2023-11-21T09:40:22;8.77;;;3.78;;
74229;SDS011;62589;12.568;99.958;2023-11-21T09:42:55;5.70;;;3.47;;
74229;SDS011;62589;12.568;99.958;2023-11-21T09:45:27;5.65;;;3.30;;
74229;SDS011;62589;12.568;99.958;2023-11-21T09:47:56;7.97;;;3.83;;
74229;SDS011;62589;12.568;99.958;2023-11-21T09:50:23;6.55;;;3.72;;
74229;SDS011;62589;12.568;99.958;2023-11-21T09:55:52;6.13;;;3.55;;
74229;SDS011;62589;12.568;99.958;2023-11-21T09:58:20;4.45;;;3.33;;
74229;SDS011;62589;12.568;99.958;2023-11-21T10:00:52;6.15;;;3.85;;
74229;SDS011;62589;12.568;99.958;2023-11-21T10:05:50;5.47;;;3.28;;
74229;SDS011;62589;12.568;99.958;2023-11-21T10:08:19;5.93;;;3.47;;
74229;SDS011;62589;12.568;99.958;2023-11-21T10:10:49;9.05;;;3.78;;
74229;SDS011;62589;12.568;99.958;2023-11-21T10:13:19;6.45;;;3.60;;
74229;SDS011;62589;12.568;99.958;2023-11-21T10:15:49;7.18;;;3.70;;
74229;SDS011;62589;12.568;99.958;2023-11-21T10:18:17;6.90;;;3.17;;
74229;SDS011;62589;12.568;99.958;2023-11-21T10:20:44;8.13;;;3.78;;
74229;SDS011;62589;12.568;99.958;2023-11-21T10:25:44;5.40;;;3.45;;
74229;SDS011;62589;12.568;99.958;2023-11-21T10:28:11;5.07;;;3.60;;
74229;SDS011;62589;12.568;99.958;2023-11-21T10:30:38;10.40;;;4.13;;
74229;SDS011;62589;12.568;99.958;2023-11-21T10:33:05;5.82;;;3.80;;
74229;SDS011;62589;12.568;99.958;2023-11-21T10:35:43;8.13;;;3.55;;
74229;SDS011;62589;12.568;99.958;2023-11-21T10:38:20;4.90;;;3.38;;
74229;SDS011;62589;12.568;99.958;2023-11-21T10:40:49;6.25;;;3.40;;
74229;SDS011;62589;12.568;99.958;2023-11-21T10:43:17;8.32;;;3.90;;
74229;SDS011;62589;12.568;99.958;2023-11-21T10:45:43;6.80;;;3.80;;
74229;SDS011;62589;12.568;99.958;2023-11-21T10:48:14;5.72;;;4.13;;
74229;SDS011;62589;12.568;99.958;2023-11-21T10:50:41;7.57;;;4.93;;
74229;SDS011;62589;12.568;99.958;2023-11-21T10:53:09;8.13;;;3.88;;
74229;SDS011;62589;12.568;99.958;2023-11-21T10:55:37;6.05;;;4.22;;
74229;SDS011;62589;12.568;99.958;2023-11-21T10:58:04;7.50;;;3.83;;
74229;SDS011;62589;12.568;99.958;2023-11-21T11:00:32;8.98;;;4.47;;
74229;SDS011;62589;12.568;99.958;2023-11-21T11:02:59;6.80;;;4.22;;
74229;SDS011;62589;12.568;99.958;2023-11-21T11:05:27;8.10;;;4.55;;
74229;SDS011;62589;12.568;99.958;2023-11-21T11:08:05;7.20;;;4.85;;
74229;SDS011;62589;12.568;99.958;2023-11-21T11:10:32;5.80;;;4.22;;
74229;SDS011;62589;12.568;99.958;2023-11-21T11:13:00;6.72;;;4.50;;
74229;SDS011;62589;12.568;99.958;2023-11-21T11:15:27;5.38;;;4.40;;
74229;SDS011;62589;12.568;99.958;2023-11-21T11:17:54;15.10;;;5.70;;
74229;SDS011;62589;12.568;99.958;2023-11-21T11:20:23;7.40;;;4.90;;
74229;SDS011;62589;12.568;99.958;2023-11-21T11:28:50;10.27;;;5.95;;
74229;SDS011;62589;12.568;99.958;2023-11-21T11:37:27;9.25;;;6.18;;
74229;SDS011;62589;12.568;99.958;2023-11-21T11:39:54;9.05;;;6.15;;
74229;SDS011;62589;12.568;99.958;2023-11-21T11:42:21;14.18;;;6.85;;
74229;SDS011;62589;12.568;99.958;2023-11-21T11:44:49;11.82;;;6.65;;
74229;SDS011;62589;12.568;99.958;2023-11-21T11:50:11;14.02;;;7.68;;
74229;SDS011;62589;12.568;99.958;2023-11-21T11:52:42;12.75;;;8.45;;
74229;SDS011;62589;12.568;99.958;2023-11-21T11:55:11;13.00;;;8.07;;
74229;SDS011;62589;12.568;99.958;2023-11-21T11:57:39;12.25;;;8.05;;
74229;SDS011;62589;12.568;99.958;2023-11-21T12:00:14;13.98;;;7.85;;
74229;SDS011;62589;12.568;99.958;2023-11-21T12:02:46;8.73;;;7.25;;
74229;SDS011;62589;12.568;99.958;2023-11-21T12:05:15;11.38;;;7.97;;
74229;SDS011;62589;12.568;99.958;2023-11-21T12:07:53;11.70;;;7.53;;
74229;SDS011;62589;12.568;99.958;2023-11-21T12:10:21;11.35;;;7.85;;
74229;SDS011;62589;12.568;99.958;2023-11-21T12:12:54;14.05;;;7.97;;
74229;SDS011;62589;12.568;99.958;2023-11-21T12:15:22;12.90;;;8.15;;
74229;SDS011;62589;12.568;99.958;2023-11-21T12:17:49;15.48;;;8.80;;
74229;SDS011;62589;12.568;99.958;2023-11-21T12:20:20;14.65;;;9.32;;
74229;SDS011;62589;12.568;99.958;2023-11-21T12:22:54;14.85;;;9.18;;
74229;SDS011;62589;12.568;99.958;2023-11-21T12:25:26;15.68;;;9.25;;
74229;SDS011;62589;12.568;99.958;2023-11-21T12:28:02;18.38;;;10.43;;
74229;SDS011;62589;12.568;99.958;2023-11-21T12:30:29;17.48;;;11.63;;
74229;SDS011;62589;12.568;99.958;2023-11-21T12:32:57;18.85;;;11.85;;
74229;SDS011;62589;12.568;99.958;2023-11-21T12:35:33;27.25;;;15.60;;
74229;SDS011;62589;12.568;99.958;2023-11-21T12:38:01;29.45;;;18.75;;
74229;SDS011;62589;12.568;99.958;2023-11-21T12:40:30;31.73;;;18.50;;
74229;SDS011;62589;12.568;99.958;2023-11-21T12:42:57;35.08;;;19.85;;
74229;SDS011;62589;12.568;99.958;2023-11-21T12:45:25;27.23;;;17.65;;
74229;SDS011;62589;12.568;99.958;2023-11-21T12:50:40;25.70;;;15.88;;
74229;SDS011;62589;12.568;99.958;2023-11-21T12:53:11;22.60;;;14.82;;
74229;SDS011;62589;12.568;99.958;2023-11-21T12:55:38;20.58;;;14.05;;
74229;SDS011;62589;12.568;99.958;2023-11-21T12:58:06;22.38;;;12.50;;
74229;SDS011;62589;12.568;99.958;2023-11-21T13:00:47;22.58;;;14.15;;
74229;SDS011;62589;12.568;99.958;2023-11-21T13:03:16;21.48;;;13.40;;
74229;SDS011;62589;12.568;99.958;2023-11-21T13:05:45;18.10;;;12.35;;
74229;SDS011;62589;12.568;99.958;2023-11-21T13:08:16;20.15;;;12.02;;
74229;SDS011;62589;12.568;99.958;2023-11-21T13:10:54;15.60;;;10.90;;
74229;SDS011;62589;12.568;99.958;2023-11-21T13:13:21;16.50;;;11.40;;
74229;SDS011;62589;12.568;99.958;2023-11-21T13:15:50;16.88;;;11.77;;
74229;SDS011;62589;12.568;99.958;2023-11-21T13:18:21;22.13;;;13.20;;
74229;SDS011;62589;12.568;99.958;2023-11-21T13:20:52;23.90;;;13.95;;
74229;SDS011;62589;12.568;99.958;2023-11-21T13:23:23;29.25;;;15.90;;
74229;SDS011;62589;12.568;99.958;2023-11-21T13:25:50;28.83;;;16.60;;
74229;SDS011;62589;12.568;99.958;2023-11-21T13:28:17;26.83;;;16.77;;
74229;SDS011;62589;12.568;99.958;2023-11-21T13:30:46;30.50;;;17.58;;
74229;SDS011;62589;12.568;99.958;2023-11-21T13:33:14;25.90;;;15.30;;
74229;SDS011;62589;12.568;99.958;2023-11-21T13:35:47;23.85;;;15.07;;
74229;SDS011;62589;12.568;99.958;2023-11-21T13:38:16;24.88;;;15.43;;
74229;SDS011;62589;12.568;99.958;2023-11-21T13:40:54;25.80;;;15.48;;
74229;SDS011;62589;12.568;99.958;2023-11-21T13:43:21;23.67;;;14.38;;
74229;SDS011;62589;12.568;99.958;2023-11-21T13:45:51;25.38;;;14.20;;
74229;SDS011;62589;12.568;99.958;2023-11-21T13:48:30;22.75;;;12.48;;
74229;SDS011;62589;12.568;99.958;2023-11-21T13:51:03;22.90;;;12.97;;
74229;SDS011;62589;12.568;99.958;2023-11-21T13:53:43;19.63;;;11.98;;
74229;SDS011;62589;12.568;99.958;2023-11-21T13:56:16;19.27;;;11.63;;
74229;SDS011;62589;12.568;99.958;2023-11-21T13:58:47;18.25;;;11.55;;
74229;SDS011;62589;12.568;99.958;2023-11-21T14:01:18;24.92;;;11.13;;
74229;SDS011;62589;12.568;99.958;2023-11-21T14:03:57;21.23;;;12.00;;
74229;SDS011;62589;12.568;99.958;2023-11-21T14:06:45;18.27;;;12.45;;
74229;SDS011;62589;12.568;99.958;2023-11-21T14:09:19;19.73;;;12.80;;
74229;SDS011;62589;12.568;99.958;2023-11-21T14:11:51;26.88;;;16.08;;
74229;SDS011;62589;12.568;99.958;2023-11-21T14:14:21;25.52;;;16.98;;
74229;SDS011;62589;12.568;99.958;2023-11-21T14:16:51;28.38;;;18.38;;
74229;SDS011;62589;12.568;99.958;2023-11-21T14:19:18;29.38;;;19.08;;
74229;SDS011;62589;12.568;99.958;2023-11-21T14:21:45;33.95;;;20.38;;
74229;SDS011;62589;12.568;99.958;2023-11-21T14:24:12;28.25;;;19.10;;
74229;SDS011;62589;12.568;99.958;2023-11-21T14:26:42;29.13;;;19.60;;
74229;SDS011;62589;12.568;99.958;2023-11-21T14:29:10;28.30;;;19.00;;
74229;SDS011;62589;12.568;99.958;2023-11-21T14:31:41;24.80;;;17.60;;
74229;SDS011;62589;12.568;99.958;2023-11-21T14:34:09;24.70;;;17.00;;
74229;SDS011;62589;12.568;99.958;2023-11-21T14:36:37;25.90;;;16.65;;
74229;SDS011;62589;12.568;99.958;2023-11-21T14:39:05;25.23;;;15.50;;
74229;SDS011;62589;12.568;99.958;2023-11-21T14:41:35;24.13;;;15.35;;
74229;SDS011;62589;12.568;99.958;2023-11-21T14:44:02;23.90;;;15.32;;
74229;SDS011;62589;12.568;99.958;2023-11-21T14:46:29;25.67;;;16.08;;
74229;SDS011;62589;12.568;99.958;2023-11-21T14:48:56;22.10;;;14.40;;
74229;SDS011;62589;12.568;99.958;2023-11-21T14:51:32;24.98;;;13.82;;
74229;SDS011;62589;12.568;99.958;2023-11-21T14:54:18;22.13;;;12.80;;
74229;SDS011;62589;12.568;99.958;2023-11-21T14:56:59;22.77;;;13.73;;